Etusivu
METAR-TAF:

METAR-TAF

Lentoasemat :

Bellaire, Michigan, Yhdysvallat

Leveyspiiri: 44-59-18N, Pituuspiiri: 085-11-54W, korkeus merenpinnasta: 190 m

Tämänhetkinen sää

Tämä raportti tehtiin 22 minuuttia sitten, kello 09.36 UTC
tyyntä
Lämpötila -1°C
Kosteus 93%
Ilmanpaine 1006 hPa
Näkyvyys: 8.0 km
Hajonneita pilviä 1200 ft:n korkeudessa
Pilvistä 3000 ft:n korkeudessa
heikkoa lumisadetta

METAR: KACB 180936Z AUTO 00000KT 5SM -SN BKN012 OVC030 M01/M02 A2972 RMK AO2 T10061017

Aika: 04:58 (09:58 UTC)


TAF: puuttuu

Säähavainnot ja -ennusteet yli 4000 lentoasemalta (METAR- ja TAF-raportit).

Käytössä olevat sääasemat on merkitty karttaan keltaisilla ja punaisilla pisteillä.

Aseta hiiri pisteen päälle nähdäksesi sääaseman nimen.

Klikkaa sitten nähdäksesi säähavainnot ja -ennusteet.

Kartan vaihtaminen: klikkaa mustalla rastilla varustettuja vihreitä pisteitä, niin voit zoomata sisään; viivalla varustettua vihreää pistettä, niin voit zoomata ulos tai vihreitä nuolia, niin pääset viereisille kartoille.


METAR-TAF: